createdAt,value
2022-10-23T00:02:46.534Z,-108.00
2022-10-23T00:07:53.287Z,-108.00
2022-10-23T00:13:00.410Z,-108.00
2022-10-23T00:18:07.573Z,-108.00
2022-10-23T00:23:14.808Z,-108.00
2022-10-23T00:28:21.978Z,-108.00
2022-10-23T00:33:29.157Z,-108.00
2022-10-23T00:38:36.411Z,-108.00
2022-10-23T00:43:43.618Z,-108.00
2022-10-23T00:48:50.844Z,-108.00
2022-10-23T00:54:06.482Z,-108.00
2022-10-23T00:59:05.319Z,-108.00
2022-10-23T01:04:12.517Z,-108.00
2022-10-23T01:09:19.688Z,-108.00
2022-10-23T01:14:27.040Z,-108.00
2022-10-23T01:19:34.208Z,-108.00
2022-10-23T01:24:41.683Z,-108.00
2022-10-23T01:29:48.848Z,-108.00
2022-10-23T01:34:56.078Z,-108.00
2022-10-23T01:40:03.307Z,-108.00
2022-10-23T01:45:10.532Z,-108.00
2022-10-23T01:50:17.790Z,-108.00
2022-10-23T01:55:25.061Z,-108.00
2022-10-23T02:00:32.304Z,-108.00
2022-10-23T02:05:39.509Z,-144.00
2022-10-23T02:10:46.733Z,-144.00
2022-10-23T02:15:53.922Z,-108.00
2022-10-23T02:21:01.221Z,-144.00
2022-10-23T02:26:08.446Z,-144.00
2022-10-23T02:31:15.606Z,-108.00
2022-10-23T02:36:22.783Z,-108.00
2022-10-23T02:41:30.063Z,-180.00
2022-10-23T02:46:37.228Z,-108.00
2022-10-23T02:51:44.384Z,-108.00
2022-10-23T02:56:51.639Z,-108.00
2022-10-23T03:01:58.987Z,-108.00
2022-10-23T03:07:06.091Z,-108.00
2022-10-23T03:12:13.294Z,-108.00
2022-10-23T03:17:20.468Z,-108.00
2022-10-23T03:22:27.692Z,-108.00
2022-10-23T03:27:34.860Z,-108.00
2022-10-23T03:32:42.446Z,-108.00
2022-10-23T03:37:49.246Z,-144.00
2022-10-23T03:42:56.506Z,-108.00
2022-10-23T03:48:03.661Z,-108.00
2022-10-23T03:53:10.830Z,-108.00
2022-10-23T03:58:18.027Z,-108.00
2022-10-23T04:03:25.244Z,-108.00
2022-10-23T04:08:32.397Z,-108.00
2022-10-23T04:13:39.595Z,-144.00
2022-10-23T04:18:46.735Z,-108.00
2022-10-23T04:23:53.910Z,-108.00
2022-10-23T04:29:01.090Z,-108.00
2022-10-23T04:34:08.317Z,-108.00
2022-10-23T04:39:15.524Z,-108.00
2022-10-23T04:44:22.773Z,-108.00
2022-10-23T04:49:29.912Z,-108.00
2022-10-23T04:54:37.161Z,-108.00
2022-10-23T04:59:44.453Z,-108.00
2022-10-23T05:04:51.666Z,-144.00
2022-10-23T05:09:58.852Z,-108.00
2022-10-23T05:15:06.112Z,-108.00
2022-10-23T05:20:13.380Z,-108.00
2022-10-23T05:25:20.600Z,-108.00
2022-10-23T05:30:27.800Z,-108.00
2022-10-23T05:35:35.000Z,-108.00
2022-10-23T05:40:42.193Z,-108.00
2022-10-23T05:45:49.406Z,-108.00
2022-10-23T05:50:56.609Z,-108.00
2022-10-23T05:56:03.884Z,-108.00
2022-10-23T06:01:11.272Z,-108.00
2022-10-23T06:06:18.403Z,-72.00
2022-10-23T06:11:25.653Z,-72.00
2022-10-23T06:16:32.891Z,-36.00
2022-10-23T06:21:40.037Z,-36.00
2022-10-23T06:26:47.266Z,0.00
2022-10-23T06:31:54.489Z,0.00
2022-10-23T06:37:01.664Z,0.00
2022-10-23T06:42:08.868Z,0.00
2022-10-23T06:52:42.101Z,72.00
2022-10-23T06:57:30.481Z,72.00
2022-10-23T07:02:37.701Z,72.00
2022-10-23T07:07:44.891Z,72.00
2022-10-23T07:12:52.087Z,36.00
2022-10-23T07:17:59.284Z,72.00
2022-10-23T07:23:06.489Z,72.00
2022-10-23T07:28:13.691Z,108.00
2022-10-23T07:33:20.969Z,108.00
2022-10-23T07:38:28.114Z,144.00
2022-10-23T07:43:35.317Z,144.00
2022-10-23T07:48:42.536Z,144.00
2022-10-23T07:53:49.727Z,72.00
2022-10-23T07:58:56.924Z,36.00
2022-10-23T08:04:04.117Z,36.00
2022-10-23T08:09:11.263Z,72.00
2022-10-23T08:14:18.538Z,36.00
2022-10-23T08:19:25.692Z,72.00
2022-10-23T08:24:32.824Z,12996.00
2022-10-23T08:29:40.064Z,14076.00
2022-10-23T08:34:47.273Z,14760.00
2022-10-23T08:39:54.498Z,14400.00
2022-10-23T08:45:01.691Z,13788.00
2022-10-23T08:50:08.897Z,14112.00
2022-10-23T08:55:16.076Z,13932.00
2022-10-23T09:00:23.283Z,15264.00
2022-10-23T09:05:30.525Z,16164.00
2022-10-23T09:10:37.703Z,17496.00
2022-10-23T09:15:46.181Z,18972.00
2022-10-23T09:20:53.448Z,18288.00
2022-10-23T09:26:00.659Z,18252.00
2022-10-23T09:31:11.018Z,17388.00
2022-10-23T09:36:15.800Z,17208.00
2022-10-23T09:41:22.977Z,17460.00
2022-10-23T09:46:30.274Z,17712.00
2022-10-23T09:51:37.552Z,18180.00
2022-10-23T09:56:44.777Z,19296.00
2022-10-23T10:01:52.121Z,19548.00
2022-10-23T10:06:59.248Z,20412.00
2022-10-23T10:12:06.607Z,20916.00
2022-10-23T10:17:13.816Z,20700.00
2022-10-23T10:22:21.068Z,21096.00
2022-10-23T10:27:28.204Z,20340.00
2022-10-23T10:32:35.422Z,19944.00
2022-10-23T10:37:44.845Z,19692.00
2022-10-23T10:42:49.789Z,20916.00
2022-10-23T10:47:56.924Z,19224.00
2022-10-23T10:53:04.154Z,17676.00
2022-10-23T10:58:11.288Z,18540.00
2022-10-23T11:03:18.476Z,18036.00
2022-10-23T11:08:25.673Z,19152.00
2022-10-23T11:13:32.851Z,21600.00
2022-10-23T11:18:40.051Z,22356.00
2022-10-23T11:23:47.255Z,22428.00
2022-10-23T11:28:54.403Z,22428.00
2022-10-23T11:34:01.568Z,21348.00
2022-10-23T11:39:09.001Z,21492.00
2022-10-23T11:44:16.278Z,21564.00
2022-10-23T11:49:23.597Z,19152.00
2022-10-23T11:54:31.059Z,18792.00
2022-10-23T11:59:38.220Z,18972.00
2022-10-23T12:04:45.428Z,18936.00
2022-10-23T12:09:52.938Z,19008.00
2022-10-23T12:15:00.155Z,20340.00
2022-10-23T12:20:07.343Z,19548.00
2022-10-23T12:25:14.658Z,19872.00
2022-10-23T12:30:21.855Z,19404.00
2022-10-23T12:35:29.253Z,19188.00
2022-10-23T12:40:36.585Z,20196.00
2022-10-23T12:45:43.785Z,17640.00
2022-10-23T12:50:51.270Z,17172.00
2022-10-23T13:01:05.905Z,14688.00
2022-10-23T13:06:12.989Z,13788.00
2022-10-23T13:11:20.425Z,11664.00
2022-10-23T13:16:27.727Z,12564.00
2022-10-23T13:21:35.172Z,12708.00
2022-10-23T13:26:42.901Z,12132.00
2022-10-23T13:31:50.443Z,11592.00
2022-10-23T13:36:57.778Z,13212.00
2022-10-23T13:42:05.050Z,13752.00
2022-10-23T13:47:12.339Z,16596.00
2022-10-23T13:52:19.768Z,16596.00
2022-10-23T13:57:27.023Z,16272.00
2022-10-23T14:02:34.288Z,17136.00
2022-10-23T14:07:41.816Z,15120.00
2022-10-23T14:12:48.770Z,15624.00
2022-10-23T14:17:59.482Z,15480.00
2022-10-23T14:23:04.444Z,15048.00
2022-10-23T14:28:11.994Z,14400.00
2022-10-23T14:33:19.374Z,11556.00
2022-10-23T14:38:26.889Z,10692.00
2022-10-23T14:43:34.356Z,11088.00
2022-10-23T14:48:45.434Z,11880.00
2022-10-23T14:53:49.220Z,10836.00
2022-10-23T14:58:56.664Z,12096.00
2022-10-23T15:04:04.127Z,12384.00
2022-10-23T15:09:11.744Z,10476.00
2022-10-23T15:14:19.986Z,10548.00
2022-10-23T15:19:27.373Z,7236.00
2022-10-23T15:24:34.808Z,4608.00
2022-10-23T15:29:42.009Z,3600.00
2022-10-23T15:34:49.251Z,2808.00
2022-10-23T15:39:58.403Z,1800.00
2022-10-23T15:45:03.724Z,1872.00
2022-10-23T15:50:10.952Z,1440.00
2022-10-23T15:55:18.531Z,792.00
2022-10-23T16:00:25.924Z,612.00
2022-10-23T16:05:33.041Z,396.00
2022-10-23T16:10:40.380Z,252.00
2022-10-23T16:15:47.644Z,144.00
2022-10-23T16:20:54.881Z,72.00
2022-10-23T16:26:02.091Z,36.00
2022-10-23T16:31:09.395Z,-36.00
2022-10-23T16:36:16.600Z,-108.00
2022-10-23T16:41:24.082Z,-108.00
2022-10-23T16:46:31.623Z,-108.00
2022-10-23T16:51:39.018Z,-108.00
2022-10-23T16:56:46.725Z,-144.00
2022-10-23T17:01:54.488Z,-108.00
2022-10-23T17:07:01.948Z,-108.00
2022-10-23T17:12:09.667Z,1368.00
2022-10-23T17:17:17.310Z,1440.00
2022-10-23T17:22:24.896Z,10800.00
2022-10-23T17:27:32.534Z,-108.00
2022-10-23T17:32:40.152Z,-144.00
2022-10-23T17:37:47.692Z,-144.00
2022-10-23T17:42:55.249Z,-144.00
2022-10-23T17:48:02.891Z,-108.00
2022-10-23T17:53:10.987Z,-144.00
2022-10-23T17:58:18.399Z,-108.00
2022-10-23T18:03:26.249Z,-108.00
2022-10-23T18:08:33.737Z,-144.00
2022-10-23T18:13:41.350Z,-108.00
2022-10-23T18:18:48.984Z,-108.00
2022-10-23T18:23:56.678Z,-108.00
2022-10-23T18:29:04.010Z,-144.00
2022-10-23T18:34:11.522Z,-144.00
2022-10-23T18:39:19.064Z,10044.00
2022-10-23T18:44:27.233Z,9864.00
2022-10-23T18:49:37.029Z,9504.00
2022-10-23T18:54:46.359Z,10116.00
2022-10-23T18:59:53.922Z,9576.00
2022-10-23T19:05:01.610Z,9756.00
2022-10-23T19:10:09.302Z,9792.00
2022-10-23T19:15:17.019Z,9864.00
2022-10-23T19:20:24.520Z,9864.00
2022-10-23T19:25:31.947Z,9756.00
2022-10-23T19:30:39.561Z,9756.00
2022-10-23T19:35:47.297Z,9828.00
2022-10-23T19:40:54.897Z,9792.00
2022-10-23T19:46:04.972Z,9864.00
2022-10-23T19:51:10.245Z,9828.00
2022-10-23T19:56:17.934Z,9756.00
2022-10-23T20:01:25.817Z,9828.00
2022-10-23T20:06:33.698Z,9720.00
2022-10-23T20:11:41.000Z,9720.00
2022-10-23T20:16:51.134Z,9864.00
2022-10-23T20:21:56.132Z,9828.00
2022-10-23T20:27:03.470Z,9972.00
2022-10-23T20:32:10.713Z,9756.00
2022-10-23T20:37:18.157Z,16092.00
2022-10-23T20:42:25.378Z,9576.00
2022-10-23T20:47:32.579Z,9576.00
2022-10-23T20:52:39.797Z,9540.00
2022-10-23T20:57:47.230Z,9324.00
2022-10-23T21:02:54.624Z,9288.00
2022-10-23T21:08:01.692Z,9504.00
2022-10-23T21:13:08.984Z,9576.00
2022-10-23T21:18:26.519Z,9576.00
2022-10-23T21:23:23.443Z,9612.00
2022-10-23T21:28:30.664Z,9648.00
2022-10-23T21:33:37.862Z,9396.00
2022-10-23T21:38:45.028Z,9648.00
2022-10-23T21:43:52.225Z,9756.00
2022-10-23T21:48:59.441Z,9612.00
2022-10-23T21:54:06.645Z,9684.00
2022-10-23T21:59:13.851Z,9612.00
2022-10-23T22:04:21.075Z,9504.00
2022-10-23T22:09:28.358Z,9540.00
2022-10-23T22:14:35.538Z,9540.00
2022-10-23T22:19:42.745Z,9612.00
2022-10-23T22:24:49.930Z,9396.00
2022-10-23T22:29:57.372Z,9540.00
2022-10-23T22:35:04.624Z,9576.00
2022-10-23T22:40:11.827Z,9432.00
2022-10-23T22:45:18.980Z,9468.00
2022-10-23T22:50:26.251Z,9540.00
2022-10-23T22:55:33.526Z,9576.00
2022-10-23T23:00:42.903Z,9576.00
2022-10-23T23:05:47.924Z,9684.00
2022-10-23T23:10:55.128Z,9684.00
2022-10-23T23:16:02.311Z,9540.00
2022-10-23T23:21:09.476Z,-108.00
2022-10-23T23:26:16.738Z,-108.00
2022-10-23T23:31:23.904Z,-108.00
2022-10-23T23:36:31.056Z,-108.00
2022-10-23T23:41:38.251Z,-144.00
2022-10-23T23:46:45.739Z,-144.00
2022-10-23T23:51:52.956Z,-144.00
2022-10-23T23:57:00.198Z,-144.00
